sensor_id;sensor_type;location;lat;lon;timestamp;pressure;altitude;pressure_sealevel;temperature
9985;BMP180;16737;50.932;6.780;2023-11-19T00:00:00;99726.00;;;17.00
9985;BMP180;16737;50.932;6.780;2023-11-19T00:02:29;99714.00;;;17.10
9985;BMP180;16737;50.932;6.780;2023-11-19T00:04:56;99691.00;;;17.10
9985;BMP180;16737;50.932;6.780;2023-11-19T00:07:23;99695.00;;;17.10
9985;BMP180;16737;50.932;6.780;2023-11-19T00:09:50;99705.00;;;17.20
9985;BMP180;16737;50.932;6.780;2023-11-19T00:12:17;99703.00;;;17.20
9985;BMP180;16737;50.932;6.780;2023-11-19T00:14:46;99691.00;;;17.20
9985;BMP180;16737;50.932;6.780;2023-11-19T00:17:13;99688.00;;;17.20
9985;BMP180;16737;50.932;6.780;2023-11-19T00:19:40;99686.00;;;17.30
9985;BMP180;16737;50.932;6.780;2023-11-19T00:22:07;99680.00;;;17.30
9985;BMP180;16737;50.932;6.780;2023-11-19T00:24:34;99687.00;;;17.30
9985;BMP180;16737;50.932;6.780;2023-11-19T00:27:04;99667.00;;;17.30
9985;BMP180;16737;50.932;6.780;2023-11-19T00:29:33;99671.00;;;17.40
9985;BMP180;16737;50.932;6.780;2023-11-19T00:32:02;99681.00;;;17.40
9985;BMP180;16737;50.932;6.780;2023-11-19T00:34:29;99673.00;;;17.40
9985;BMP180;16737;50.932;6.780;2023-11-19T00:36:56;99689.00;;;17.40
9985;BMP180;16737;50.932;6.780;2023-11-19T00:39:23;99654.00;;;17.40
9985;BMP180;16737;50.932;6.780;2023-11-19T00:41:53;99680.00;;;17.40
9985;BMP180;16737;50.932;6.780;2023-11-19T00:44:20;99674.00;;;17.40
9985;BMP180;16737;50.932;6.780;2023-11-19T00:46:48;99682.00;;;17.40
9985;BMP180;16737;50.932;6.780;2023-11-19T00:49:17;99692.00;;;17.40
9985;BMP180;16737;50.932;6.780;2023-11-19T00:51:44;99689.00;;;17.40
9985;BMP180;16737;50.932;6.780;2023-11-19T00:54:11;99691.00;;;17.50
9985;BMP180;16737;50.932;6.780;2023-11-19T00:56:38;99684.00;;;17.50
9985;BMP180;16737;50.932;6.780;2023-11-19T00:59:05;99684.00;;;17.50
9985;BMP180;16737;50.932;6.780;2023-11-19T01:01:33;99681.00;;;17.50
9985;BMP180;16737;50.932;6.780;2023-11-19T01:04:00;99680.00;;;17.50
9985;BMP180;16737;50.932;6.780;2023-11-19T01:06:30;99686.00;;;17.50
9985;BMP180;16737;50.932;6.780;2023-11-19T01:08:57;99679.00;;;17.50
9985;BMP180;16737;50.932;6.780;2023-11-19T01:11:25;99680.00;;;17.50
9985;BMP180;16737;50.932;6.780;2023-11-19T01:13:52;99667.00;;;17.50
9985;BMP180;16737;50.932;6.780;2023-11-19T01:16:19;99675.00;;;17.50
9985;BMP180;16737;50.932;6.780;2023-11-19T01:18:47;99687.00;;;17.50
9985;BMP180;16737;50.932;6.780;2023-11-19T01:21:15;99682.00;;;17.50
9985;BMP180;16737;50.932;6.780;2023-11-19T01:23:43;99670.00;;;17.50
9985;BMP180;16737;50.932;6.780;2023-11-19T01:26:12;99679.00;;;17.60
9985;BMP180;16737;50.932;6.780;2023-11-19T01:28:40;99663.00;;;17.50
9985;BMP180;16737;50.932;6.780;2023-11-19T01:31:08;99657.00;;;17.60
9985;BMP180;16737;50.932;6.780;2023-11-19T01:33:36;99667.00;;;17.60
9985;BMP180;16737;50.932;6.780;2023-11-19T01:36:04;99679.00;;;17.60
9985;BMP180;16737;50.932;6.780;2023-11-19T01:38:32;99688.00;;;17.60
9985;BMP180;16737;50.932;6.780;2023-11-19T01:41:00;99674.00;;;17.50
9985;BMP180;16737;50.932;6.780;2023-11-19T01:43:33;99677.00;;;17.60
9985;BMP180;16737;50.932;6.780;2023-11-19T01:46:01;99671.00;;;17.60
9985;BMP180;16737;50.932;6.780;2023-11-19T01:48:28;99673.00;;;17.60
9985;BMP180;16737;50.932;6.780;2023-11-19T01:50:56;99667.00;;;17.60
9985;BMP180;16737;50.932;6.780;2023-11-19T01:53:24;99665.00;;;17.60
9985;BMP180;16737;50.932;6.780;2023-11-19T01:55:51;99661.00;;;17.60
9985;BMP180;16737;50.932;6.780;2023-11-19T01:58:20;99673.00;;;17.60
9985;BMP180;16737;50.932;6.780;2023-11-19T02:00:48;99680.00;;;17.60
9985;BMP180;16737;50.932;6.780;2023-11-19T02:03:16;99668.00;;;17.60
9985;BMP180;16737;50.932;6.780;2023-11-19T02:05:48;99677.00;;;17.60
9985;BMP180;16737;50.932;6.780;2023-11-19T02:08:19;99663.00;;;17.60
9985;BMP180;16737;50.932;6.780;2023-11-19T02:10:46;99663.00;;;17.70
9985;BMP180;16737;50.932;6.780;2023-11-19T02:13:15;99650.00;;;17.70
9985;BMP180;16737;50.932;6.780;2023-11-19T02:15:44;99644.00;;;17.70
9985;BMP180;16737;50.932;6.780;2023-11-19T02:18:22;99629.00;;;17.70
9985;BMP180;16737;50.932;6.780;2023-11-19T02:20:50;99643.00;;;17.70
9985;BMP180;16737;50.932;6.780;2023-11-19T02:23:19;99626.00;;;17.70
9985;BMP180;16737;50.932;6.780;2023-11-19T02:26:00;99618.00;;;17.70
9985;BMP180;16737;50.932;6.780;2023-11-19T02:28:30;99626.00;;;17.70
9985;BMP180;16737;50.932;6.780;2023-11-19T02:30:58;99623.00;;;17.70
9985;BMP180;16737;50.932;6.780;2023-11-19T02:33:25;99628.00;;;17.80
9985;BMP180;16737;50.932;6.780;2023-11-19T02:35:52;99630.00;;;17.80
9985;BMP180;16737;50.932;6.780;2023-11-19T02:38:19;99626.00;;;17.80
9985;BMP180;16737;50.932;6.780;2023-11-19T02:40:47;99627.00;;;17.80
9985;BMP180;16737;50.932;6.780;2023-11-19T02:43:15;99621.00;;;17.80
9985;BMP180;16737;50.932;6.780;2023-11-19T02:45:54;99621.00;;;17.80
9985;BMP180;16737;50.932;6.780;2023-11-19T02:48:22;99615.00;;;17.80
9985;BMP180;16737;50.932;6.780;2023-11-19T02:50:51;99602.00;;;17.80
9985;BMP180;16737;50.932;6.780;2023-11-19T02:53:18;99608.00;;;17.80
9985;BMP180;16737;50.932;6.780;2023-11-19T02:55:47;99604.00;;;17.70
9985;BMP180;16737;50.932;6.780;2023-11-19T02:58:15;99601.00;;;17.70
9985;BMP180;16737;50.932;6.780;2023-11-19T03:00:49;99602.00;;;17.70
9985;BMP180;16737;50.932;6.780;2023-11-19T03:03:24;99607.00;;;17.70
9985;BMP180;16737;50.932;6.780;2023-11-19T03:05:54;99613.00;;;17.70
9985;BMP180;16737;50.932;6.780;2023-11-19T03:08:22;99614.00;;;17.70
9985;BMP180;16737;50.932;6.780;2023-11-19T03:11:14;99607.00;;;17.60
9985;BMP180;16737;50.932;6.780;2023-11-19T03:13:41;99611.00;;;17.60
9985;BMP180;16737;50.932;6.780;2023-11-19T03:16:08;99605.00;;;17.60
9985;BMP180;16737;50.932;6.780;2023-11-19T03:18:38;99599.00;;;17.50
9985;BMP180;16737;50.932;6.780;2023-11-19T03:21:06;99599.00;;;17.60
9985;BMP180;16737;50.932;6.780;2023-11-19T03:23:34;99588.00;;;17.50
9985;BMP180;16737;50.932;6.780;2023-11-19T03:26:01;99589.00;;;17.60
9985;BMP180;16737;50.932;6.780;2023-11-19T03:28:31;99583.00;;;17.60
9985;BMP180;16737;50.932;6.780;2023-11-19T03:30:58;99575.00;;;17.60
9985;BMP180;16737;50.932;6.780;2023-11-19T03:33:25;99590.00;;;17.60
9985;BMP180;16737;50.932;6.780;2023-11-19T03:35:56;99598.00;;;17.50
9985;BMP180;16737;50.932;6.780;2023-11-19T03:38:24;99585.00;;;17.50
9985;BMP180;16737;50.932;6.780;2023-11-19T03:40:51;99590.00;;;17.50
9985;BMP180;16737;50.932;6.780;2023-11-19T03:43:18;99607.00;;;17.50
9985;BMP180;16737;50.932;6.780;2023-11-19T03:45:46;99600.00;;;17.50
9985;BMP180;16737;50.932;6.780;2023-11-19T03:48:13;99603.00;;;17.50
9985;BMP180;16737;50.932;6.780;2023-11-19T03:50:42;99598.00;;;17.50
9985;BMP180;16737;50.932;6.780;2023-11-19T03:53:12;99595.00;;;17.50
9985;BMP180;16737;50.932;6.780;2023-11-19T03:55:39;99600.00;;;17.50
9985;BMP180;16737;50.932;6.780;2023-11-19T03:58:06;99596.00;;;17.50
9985;BMP180;16737;50.932;6.780;2023-11-19T04:00:33;99575.00;;;17.50
9985;BMP180;16737;50.932;6.780;2023-11-19T04:03:00;99579.00;;;17.40
9985;BMP180;16737;50.932;6.780;2023-11-19T04:05:28;99595.00;;;17.40
9985;BMP180;16737;50.932;6.780;2023-11-19T04:07:55;99588.00;;;17.40
9985;BMP180;16737;50.932;6.780;2023-11-19T04:10:24;99608.00;;;17.40
9985;BMP180;16737;50.932;6.780;2023-11-19T04:12:51;99598.00;;;17.40
9985;BMP180;16737;50.932;6.780;2023-11-19T04:15:18;99597.00;;;17.40
9985;BMP180;16737;50.932;6.780;2023-11-19T04:17:44;99595.00;;;17.40
9985;BMP180;16737;50.932;6.780;2023-11-19T04:20:15;99568.00;;;17.40
9985;BMP180;16737;50.932;6.780;2023-11-19T04:22:41;99600.00;;;17.40
9985;BMP180;16737;50.932;6.780;2023-11-19T04:25:09;99590.00;;;17.40
9985;BMP180;16737;50.932;6.780;2023-11-19T04:27:38;99594.00;;;17.40
9985;BMP180;16737;50.932;6.780;2023-11-19T04:30:06;99581.00;;;17.30
9985;BMP180;16737;50.932;6.780;2023-11-19T04:32:42;99599.00;;;17.30
9985;BMP180;16737;50.932;6.780;2023-11-19T04:35:09;99617.00;;;17.30
9985;BMP180;16737;50.932;6.780;2023-11-19T04:37:37;99603.00;;;17.30
9985;BMP180;16737;50.932;6.780;2023-11-19T04:40:06;99604.00;;;17.30
9985;BMP180;16737;50.932;6.780;2023-11-19T04:42:33;99606.00;;;17.30
9985;BMP180;16737;50.932;6.780;2023-11-19T04:45:01;99597.00;;;17.30
9985;BMP180;16737;50.932;6.780;2023-11-19T04:47:28;99615.00;;;17.30
9985;BMP180;16737;50.932;6.780;2023-11-19T04:49:55;99615.00;;;17.30
9985;BMP180;16737;50.932;6.780;2023-11-19T04:52:22;99614.00;;;17.30
9985;BMP180;16737;50.932;6.780;2023-11-19T04:54:49;99617.00;;;17.30
9985;BMP180;16737;50.932;6.780;2023-11-19T04:57:17;99615.00;;;17.30
9985;BMP180;16737;50.932;6.780;2023-11-19T04:59:44;99605.00;;;17.30
9985;BMP180;16737;50.932;6.780;2023-11-19T05:02:12;99597.00;;;17.30
9985;BMP180;16737;50.932;6.780;2023-11-19T05:04:43;99611.00;;;17.20
9985;BMP180;16737;50.932;6.780;2023-11-19T05:07:12;99620.00;;;17.20
9985;BMP180;16737;50.932;6.780;2023-11-19T05:09:39;99615.00;;;17.20
9985;BMP180;16737;50.932;6.780;2023-11-19T05:12:06;99618.00;;;17.20
9985;BMP180;16737;50.932;6.780;2023-11-19T05:14:35;99629.00;;;17.20
9985;BMP180;16737;50.932;6.780;2023-11-19T05:17:03;99617.00;;;17.20
9985;BMP180;16737;50.932;6.780;2023-11-19T05:19:31;99616.00;;;17.10
9985;BMP180;16737;50.932;6.780;2023-11-19T05:21:58;99623.00;;;17.10
9985;BMP180;16737;50.932;6.780;2023-11-19T05:24:26;99616.00;;;17.10
9985;BMP180;16737;50.932;6.780;2023-11-19T05:26:53;99609.00;;;17.10
9985;BMP180;16737;50.932;6.780;2023-11-19T05:29:20;99613.00;;;17.10
9985;BMP180;16737;50.932;6.780;2023-11-19T05:31:47;99605.00;;;17.00
9985;BMP180;16737;50.932;6.780;2023-11-19T05:34:14;99613.00;;;17.00
9985;BMP180;16737;50.932;6.780;2023-11-19T05:36:42;99615.00;;;17.00
9985;BMP180;16737;50.932;6.780;2023-11-19T05:39:10;99605.00;;;17.00
9985;BMP180;16737;50.932;6.780;2023-11-19T05:41:40;99614.00;;;16.90
9985;BMP180;16737;50.932;6.780;2023-11-19T05:44:07;99627.00;;;17.00
9985;BMP180;16737;50.932;6.780;2023-11-19T05:46:34;99628.00;;;16.90
9985;BMP180;16737;50.932;6.780;2023-11-19T05:49:06;99616.00;;;16.90
9985;BMP180;16737;50.932;6.780;2023-11-19T05:51:36;99599.00;;;16.90
9985;BMP180;16737;50.932;6.780;2023-11-19T05:54:06;99610.00;;;16.90
9985;BMP180;16737;50.932;6.780;2023-11-19T05:56:34;99618.00;;;16.90
9985;BMP180;16737;50.932;6.780;2023-11-19T05:59:02;99606.00;;;16.90
9985;BMP180;16737;50.932;6.780;2023-11-19T06:01:33;99630.00;;;16.80
9985;BMP180;16737;50.932;6.780;2023-11-19T06:04:00;99635.00;;;16.80
9985;BMP180;16737;50.932;6.780;2023-11-19T06:06:28;99620.00;;;16.80
9985;BMP180;16737;50.932;6.780;2023-11-19T06:08:55;99637.00;;;16.80
9985;BMP180;16737;50.932;6.780;2023-11-19T06:11:24;99618.00;;;16.80
9985;BMP180;16737;50.932;6.780;2023-11-19T06:13:52;99640.00;;;16.80
9985;BMP180;16737;50.932;6.780;2023-11-19T06:16:22;99634.00;;;16.70
9985;BMP180;16737;50.932;6.780;2023-11-19T06:18:49;99626.00;;;16.70
9985;BMP180;16737;50.932;6.780;2023-11-19T06:21:19;99624.00;;;16.70
9985;BMP180;16737;50.932;6.780;2023-11-19T06:23:46;99640.00;;;16.70
9985;BMP180;16737;50.932;6.780;2023-11-19T06:26:14;99645.00;;;16.70
9985;BMP180;16737;50.932;6.780;2023-11-19T06:28:42;99641.00;;;16.70
9985;BMP180;16737;50.932;6.780;2023-11-19T06:31:09;99648.00;;;16.70
9985;BMP180;16737;50.932;6.780;2023-11-19T06:33:36;99647.00;;;16.70
9985;BMP180;16737;50.932;6.780;2023-11-19T06:36:05;99647.00;;;16.70
9985;BMP180;16737;50.932;6.780;2023-11-19T06:38:33;99642.00;;;16.70
9985;BMP180;16737;50.932;6.780;2023-11-19T06:41:00;99649.00;;;16.70
9985;BMP180;16737;50.932;6.780;2023-11-19T06:43:27;99648.00;;;16.70
9985;BMP180;16737;50.932;6.780;2023-11-19T06:45:56;99630.00;;;16.70
9985;BMP180;16737;50.932;6.780;2023-11-19T06:48:23;99646.00;;;16.70
9985;BMP180;16737;50.932;6.780;2023-11-19T06:50:50;99648.00;;;16.70
9985;BMP180;16737;50.932;6.780;2023-11-19T06:53:17;99661.00;;;16.70
9985;BMP180;16737;50.932;6.780;2023-11-19T06:55:44;99645.00;;;16.60
9985;BMP180;16737;50.932;6.780;2023-11-19T06:58:11;99652.00;;;16.60
9985;BMP180;16737;50.932;6.780;2023-11-19T07:00:38;99666.00;;;16.60
9985;BMP180;16737;50.932;6.780;2023-11-19T07:03:06;99654.00;;;16.60
9985;BMP180;16737;50.932;6.780;2023-11-19T07:05:36;99665.00;;;16.60
9985;BMP180;16737;50.932;6.780;2023-11-19T07:08:05;99643.00;;;16.60
9985;BMP180;16737;50.932;6.780;2023-11-19T07:10:33;99646.00;;;16.60
9985;BMP180;16737;50.932;6.780;2023-11-19T07:13:00;99645.00;;;16.60
9985;BMP180;16737;50.932;6.780;2023-11-19T07:15:30;99634.00;;;16.60
9985;BMP180;16737;50.932;6.780;2023-11-19T07:18:01;99647.00;;;16.60
9985;BMP180;16737;50.932;6.780;2023-11-19T07:20:29;99663.00;;;16.60
9985;BMP180;16737;50.932;6.780;2023-11-19T07:22:56;99671.00;;;16.60
9985;BMP180;16737;50.932;6.780;2023-11-19T07:25:23;99662.00;;;16.60
9985;BMP180;16737;50.932;6.780;2023-11-19T07:27:51;99667.00;;;16.60
9985;BMP180;16737;50.932;6.780;2023-11-19T07:30:19;99663.00;;;16.60
9985;BMP180;16737;50.932;6.780;2023-11-19T07:32:46;99683.00;;;16.60
9985;BMP180;16737;50.932;6.780;2023-11-19T07:35:14;99686.00;;;16.60
9985;BMP180;16737;50.932;6.780;2023-11-19T07:37:42;99696.00;;;16.60
9985;BMP180;16737;50.932;6.780;2023-11-19T07:40:10;99712.00;;;16.60
9985;BMP180;16737;50.932;6.780;2023-11-19T07:42:38;99713.00;;;16.60
9985;BMP180;16737;50.932;6.780;2023-11-19T07:45:06;99717.00;;;16.60
9985;BMP180;16737;50.932;6.780;2023-11-19T07:47:33;99704.00;;;16.60
9985;BMP180;16737;50.932;6.780;2023-11-19T07:50:00;99718.00;;;16.60
9985;BMP180;16737;50.932;6.780;2023-11-19T07:52:27;99728.00;;;16.60
9985;BMP180;16737;50.932;6.780;2023-11-19T07:54:56;99734.00;;;16.60
9985;BMP180;16737;50.932;6.780;2023-11-19T07:57:32;99719.00;;;16.60
9985;BMP180;16737;50.932;6.780;2023-11-19T07:59:59;99717.00;;;16.60
9985;BMP180;16737;50.932;6.780;2023-11-19T08:02:27;99717.00;;;16.60
9985;BMP180;16737;50.932;6.780;2023-11-19T08:04:54;99709.00;;;16.60
9985;BMP180;16737;50.932;6.780;2023-11-19T08:07:22;99700.00;;;16.60
9985;BMP180;16737;50.932;6.780;2023-11-19T08:09:49;99706.00;;;16.60
9985;BMP180;16737;50.932;6.780;2023-11-19T08:12:19;99700.00;;;16.70
9985;BMP180;16737;50.932;6.780;2023-11-19T08:14:46;99692.00;;;16.70
9985;BMP180;16737;50.932;6.780;2023-11-19T08:17:15;99707.00;;;16.70
9985;BMP180;16737;50.932;6.780;2023-11-19T08:19:42;99713.00;;;16.70
9985;BMP180;16737;50.932;6.780;2023-11-19T08:22:09;99728.00;;;16.80
9985;BMP180;16737;50.932;6.780;2023-11-19T08:24:37;99738.00;;;16.80
9985;BMP180;16737;50.932;6.780;2023-11-19T08:27:04;99715.00;;;16.90
9985;BMP180;16737;50.932;6.780;2023-11-19T08:29:32;99719.00;;;16.90
9985;BMP180;16737;50.932;6.780;2023-11-19T08:32:00;99728.00;;;16.80
9985;BMP180;16737;50.932;6.780;2023-11-19T08:34:27;99723.00;;;16.90
9985;BMP180;16737;50.932;6.780;2023-11-19T08:36:55;99725.00;;;16.90
9985;BMP180;16737;50.932;6.780;2023-11-19T08:39:22;99730.00;;;16.90
9985;BMP180;16737;50.932;6.780;2023-11-19T08:41:49;99743.00;;;17.00
9985;BMP180;16737;50.932;6.780;2023-11-19T08:44:16;99743.00;;;17.00
9985;BMP180;16737;50.932;6.780;2023-11-19T08:46:48;99737.00;;;17.00
9985;BMP180;16737;50.932;6.780;2023-11-19T08:49:15;99739.00;;;17.10
9985;BMP180;16737;50.932;6.780;2023-11-19T08:51:43;99720.00;;;17.10
9985;BMP180;16737;50.932;6.780;2023-11-19T08:54:10;99748.00;;;17.10
9985;BMP180;16737;50.932;6.780;2023-11-19T08:56:38;99743.00;;;17.10
9985;BMP180;16737;50.932;6.780;2023-11-19T08:59:05;99740.00;;;17.10
9985;BMP180;16737;50.932;6.780;2023-11-19T09:01:32;99760.00;;;17.20
9985;BMP180;16737;50.932;6.780;2023-11-19T09:04:04;99759.00;;;17.20
9985;BMP180;16737;50.932;6.780;2023-11-19T09:06:32;99764.00;;;17.30
9985;BMP180;16737;50.932;6.780;2023-11-19T09:08:59;99754.00;;;17.30
9985;BMP180;16737;50.932;6.780;2023-11-19T09:11:28;99758.00;;;17.30
9985;BMP180;16737;50.932;6.780;2023-11-19T09:13:58;99755.00;;;17.40
9985;BMP180;16737;50.932;6.780;2023-11-19T09:16:25;99754.00;;;17.40
9985;BMP180;16737;50.932;6.780;2023-11-19T09:18:52;99746.00;;;17.40
9985;BMP180;16737;50.932;6.780;2023-11-19T09:21:23;99742.00;;;17.40
9985;BMP180;16737;50.932;6.780;2023-11-19T09:23:50;99751.00;;;17.40
9985;BMP180;16737;50.932;6.780;2023-11-19T09:26:19;99747.00;;;17.40
9985;BMP180;16737;50.932;6.780;2023-11-19T09:28:46;99749.00;;;17.50
9985;BMP180;16737;50.932;6.780;2023-11-19T09:31:14;99747.00;;;17.50
9985;BMP180;16737;50.932;6.780;2023-11-19T09:33:41;99743.00;;;17.60
9985;BMP180;16737;50.932;6.780;2023-11-19T09:36:09;99766.00;;;17.60
9985;BMP180;16737;50.932;6.780;2023-11-19T09:38:40;99756.00;;;17.70
9985;BMP180;16737;50.932;6.780;2023-11-19T09:41:09;99766.00;;;17.70
9985;BMP180;16737;50.932;6.780;2023-11-19T09:43:39;99766.00;;;17.70
9985;BMP180;16737;50.932;6.780;2023-11-19T09:46:09;99783.00;;;17.70
9985;BMP180;16737;50.932;6.780;2023-11-19T09:48:38;99780.00;;;17.70
9985;BMP180;16737;50.932;6.780;2023-11-19T09:51:06;99768.00;;;17.80
9985;BMP180;16737;50.932;6.780;2023-11-19T09:53:34;99763.00;;;17.80
9985;BMP180;16737;50.932;6.780;2023-11-19T09:56:05;99768.00;;;17.90
9985;BMP180;16737;50.932;6.780;2023-11-19T09:58:34;99756.00;;;17.90
9985;BMP180;16737;50.932;6.780;2023-11-19T10:01:01;99748.00;;;17.90
9985;BMP180;16737;50.932;6.780;2023-11-19T10:03:34;99735.00;;;17.90
9985;BMP180;16737;50.932;6.780;2023-11-19T10:06:04;99756.00;;;17.90
9985;BMP180;16737;50.932;6.780;2023-11-19T10:08:33;99764.00;;;18.00
9985;BMP180;16737;50.932;6.780;2023-11-19T10:11:02;99756.00;;;18.00
9985;BMP180;16737;50.932;6.780;2023-11-19T10:13:29;99760.00;;;18.00
9985;BMP180;16737;50.932;6.780;2023-11-19T10:15:56;99757.00;;;18.00
9985;BMP180;16737;50.932;6.780;2023-11-19T10:18:26;99759.00;;;18.10
9985;BMP180;16737;50.932;6.780;2023-11-19T10:20:53;99755.00;;;18.10
9985;BMP180;16737;50.932;6.780;2023-11-19T10:23:21;99759.00;;;18.20
9985;BMP180;16737;50.932;6.780;2023-11-19T10:25:48;99769.00;;;18.20
9985;BMP180;16737;50.932;6.780;2023-11-19T10:28:22;99754.00;;;18.30
9985;BMP180;16737;50.932;6.780;2023-11-19T10:30:49;99759.00;;;18.30
9985;BMP180;16737;50.932;6.780;2023-11-19T10:33:17;99754.00;;;18.30
9985;BMP180;16737;50.932;6.780;2023-11-19T10:35:52;99750.00;;;18.30
9985;BMP180;16737;50.932;6.780;2023-11-19T10:38:20;99751.00;;;18.40
9985;BMP180;16737;50.932;6.780;2023-11-19T10:40:48;99754.00;;;18.40
9985;BMP180;16737;50.932;6.780;2023-11-19T10:43:17;99744.00;;;18.40
9985;BMP180;16737;50.932;6.780;2023-11-19T10:45:48;99738.00;;;18.40
9985;BMP180;16737;50.932;6.780;2023-11-19T10:48:17;99742.00;;;18.40
9985;BMP180;16737;50.932;6.780;2023-11-19T10:50:49;99751.00;;;18.30
9985;BMP180;16737;50.932;6.780;2023-11-19T10:53:20;99752.00;;;18.30
9985;BMP180;16737;50.932;6.780;2023-11-19T10:55:48;99753.00;;;18.30
9985;BMP180;16737;50.932;6.780;2023-11-19T10:58:16;99742.00;;;18.30
9985;BMP180;16737;50.932;6.780;2023-11-19T11:00:47;99749.00;;;18.30
9985;BMP180;16737;50.932;6.780;2023-11-19T11:03:19;99753.00;;;18.30
9985;BMP180;16737;50.932;6.780;2023-11-19T11:05:48;99767.00;;;18.30
9985;BMP180;16737;50.932;6.780;2023-11-19T11:08:19;99755.00;;;18.20
9985;BMP180;16737;50.932;6.780;2023-11-19T11:10:53;99769.00;;;18.10
9985;BMP180;16737;50.932;6.780;2023-11-19T11:13:23;99769.00;;;18.10
9985;BMP180;16737;50.932;6.780;2023-11-19T11:15:53;99759.00;;;18.00
9985;BMP180;16737;50.932;6.780;2023-11-19T11:18:22;99740.00;;;18.00
9985;BMP180;16737;50.932;6.780;2023-11-19T11:20:57;99737.00;;;18.10
9985;BMP180;16737;50.932;6.780;2023-11-19T11:24:06;99754.00;;;18.00
9985;BMP180;16737;50.932;6.780;2023-11-19T11:27:02;99757.00;;;18.00
9985;BMP180;16737;50.932;6.780;2023-11-19T11:29:47;99754.00;;;18.10
9985;BMP180;16737;50.932;6.780;2023-11-19T11:32:33;99752.00;;;18.00
9985;BMP180;16737;50.932;6.780;2023-11-19T11:35:19;99746.00;;;18.00
9985;BMP180;16737;50.932;6.780;2023-11-19T11:38:00;99754.00;;;18.00
9985;BMP180;16737;50.932;6.780;2023-11-19T11:40:28;99739.00;;;18.00
9985;BMP180;16737;50.932;6.780;2023-11-19T11:42:55;99725.00;;;18.00
9985;BMP180;16737;50.932;6.780;2023-11-19T11:45:36;99716.00;;;17.90
9985;BMP180;16737;50.932;6.780;2023-11-19T11:48:11;99714.00;;;17.90
9985;BMP180;16737;50.932;6.780;2023-11-19T11:50:57;99714.00;;;17.80
9985;BMP180;16737;50.932;6.780;2023-11-19T11:53:25;99729.00;;;17.90
9985;BMP180;16737;50.932;6.780;2023-11-19T11:55:57;99723.00;;;17.80
9985;BMP180;16737;50.932;6.780;2023-11-19T11:58:35;99736.00;;;17.80
9985;BMP180;16737;50.932;6.780;2023-11-19T12:01:05;99726.00;;;17.90
9985;BMP180;16737;50.932;6.780;2023-11-19T12:03:38;99723.00;;;17.90
9985;BMP180;16737;50.932;6.780;2023-11-19T12:06:06;99732.00;;;17.90
9985;BMP180;16737;50.932;6.780;2023-11-19T12:08:41;99721.00;;;17.90
9985;BMP180;16737;50.932;6.780;2023-11-19T12:11:08;99717.00;;;18.00
9985;BMP180;16737;50.932;6.780;2023-11-19T12:17:43;99696.00;;;18.00
9985;BMP180;16737;50.932;6.780;2023-11-19T12:20:12;99710.00;;;18.10
9985;BMP180;16737;50.932;6.780;2023-11-19T12:22:41;99707.00;;;18.10
9985;BMP180;16737;50.932;6.780;2023-11-19T12:25:11;99695.00;;;18.10
9985;BMP180;16737;50.932;6.780;2023-11-19T12:27:41;99701.00;;;18.20
9985;BMP180;16737;50.932;6.780;2023-11-19T12:30:09;99699.00;;;18.20
9985;BMP180;16737;50.932;6.780;2023-11-19T12:32:42;99697.00;;;18.20
9985;BMP180;16737;50.932;6.780;2023-11-19T12:35:12;99698.00;;;18.30
9985;BMP180;16737;50.932;6.780;2023-11-19T12:37:41;99716.00;;;18.30
9985;BMP180;16737;50.932;6.780;2023-11-19T12:40:15;99697.00;;;18.30
9985;BMP180;16737;50.932;6.780;2023-11-19T12:42:43;99705.00;;;18.30
9985;BMP180;16737;50.932;6.780;2023-11-19T12:45:11;99684.00;;;18.30
9985;BMP180;16737;50.932;6.780;2023-11-19T12:47:38;99709.00;;;18.30
9985;BMP180;16737;50.932;6.780;2023-11-19T12:50:07;99699.00;;;18.30
9985;BMP180;16737;50.932;6.780;2023-11-19T12:52:37;99689.00;;;18.30
9985;BMP180;16737;50.932;6.780;2023-11-19T12:57:50;99715.00;;;18.30
9985;BMP180;16737;50.932;6.780;2023-11-19T13:00:22;99708.00;;;18.20
9985;BMP180;16737;50.932;6.780;2023-11-19T13:02:51;99681.00;;;18.20
9985;BMP180;16737;50.932;6.780;2023-11-19T13:05:25;99683.00;;;18.20
9985;BMP180;16737;50.932;6.780;2023-11-19T13:08:01;99685.00;;;18.20
9985;BMP180;16737;50.932;6.780;2023-11-19T13:10:32;99696.00;;;18.20
9985;BMP180;16737;50.932;6.780;2023-11-19T13:13:04;99683.00;;;18.20
9985;BMP180;16737;50.932;6.780;2023-11-19T13:15:32;99679.00;;;18.20
9985;BMP180;16737;50.932;6.780;2023-11-19T13:18:00;99687.00;;;18.10
9985;BMP180;16737;50.932;6.780;2023-11-19T13:20:27;99692.00;;;18.10
9985;BMP180;16737;50.932;6.780;2023-11-19T13:22:56;99691.00;;;18.10
9985;BMP180;16737;50.932;6.780;2023-11-19T13:25:27;99693.00;;;18.10
9985;BMP180;16737;50.932;6.780;2023-11-19T13:27:54;99690.00;;;18.10
9985;BMP180;16737;50.932;6.780;2023-11-19T13:30:22;99693.00;;;18.10
9985;BMP180;16737;50.932;6.780;2023-11-19T13:32:51;99694.00;;;18.10
9985;BMP180;16737;50.932;6.780;2023-11-19T13:35:19;99693.00;;;18.10
9985;BMP180;16737;50.932;6.780;2023-11-19T13:37:46;99680.00;;;18.10
9985;BMP180;16737;50.932;6.780;2023-11-19T13:40:13;99672.00;;;18.10
9985;BMP180;16737;50.932;6.780;2023-11-19T13:42:46;99677.00;;;18.10
9985;BMP180;16737;50.932;6.780;2023-11-19T13:45:15;99677.00;;;18.10
9985;BMP180;16737;50.932;6.780;2023-11-19T13:47:45;99665.00;;;18.20
9985;BMP180;16737;50.932;6.780;2023-11-19T13:50:15;99666.00;;;18.20
9985;BMP180;16737;50.932;6.780;2023-11-19T13:52:44;99660.00;;;18.20
9985;BMP180;16737;50.932;6.780;2023-11-19T13:55:13;99666.00;;;18.20
9985;BMP180;16737;50.932;6.780;2023-11-19T13:57:42;99663.00;;;18.20
9985;BMP180;16737;50.932;6.780;2023-11-19T14:00:12;99662.00;;;18.20
9985;BMP180;16737;50.932;6.780;2023-11-19T14:02:42;99653.00;;;18.20
9985;BMP180;16737;50.932;6.780;2023-11-19T14:05:10;99660.00;;;18.20
9985;BMP180;16737;50.932;6.780;2023-11-19T14:07:37;99657.00;;;18.20
9985;BMP180;16737;50.932;6.780;2023-11-19T14:10:06;99651.00;;;18.20
9985;BMP180;16737;50.932;6.780;2023-11-19T14:12:35;99649.00;;;18.20
9985;BMP180;16737;50.932;6.780;2023-11-19T14:15:03;99646.00;;;18.20
9985;BMP180;16737;50.932;6.780;2023-11-19T14:17:33;99651.00;;;18.30
9985;BMP180;16737;50.932;6.780;2023-11-19T14:20:00;99662.00;;;18.30
9985;BMP180;16737;50.932;6.780;2023-11-19T14:22:33;99663.00;;;18.30
9985;BMP180;16737;50.932;6.780;2023-11-19T14:25:00;99651.00;;;18.30
9985;BMP180;16737;50.932;6.780;2023-11-19T14:27:27;99664.00;;;18.20
9985;BMP180;16737;50.932;6.780;2023-11-19T14:29:54;99668.00;;;18.20
9985;BMP180;16737;50.932;6.780;2023-11-19T14:32:24;99672.00;;;18.20
9985;BMP180;16737;50.932;6.780;2023-11-19T14:34:52;99684.00;;;18.20
9985;BMP180;16737;50.932;6.780;2023-11-19T14:37:19;99667.00;;;18.10